Terminal Aerodrome Forecast
Issued by NWS Green Bay, WI

Home | Current Version | Previous Version | Graphics & Text | Print | Product List | Glossary On
Versions: 1 2 3 4 5 6 7 8 9 10 11 12 13 14 15 16 17 18 19 20 21 22 23 24 25 26 27 28 29 30 31 32 33 34 35 36
000
FTUS43 KGRB 260500
TAFGRB
TAF
KGRB 260528Z 2606/2706 VRB03KT P6SM SCT026 SCT100
     FM261200 19004KT P6SM SCT020 OVC070
     FM261700 19011KT 2SM -SN BKN018 OVC025
     FM262200 16006KT 4SM -SN BKN015 OVC022
     FM270400 07005KT 5SM -SN BKN018 OVC025=

USA.gov is the U.S. government's official web portal to all federal, state and local government web resources and services.